Time;durP1;ratioP1;P1;durP2;ratioP2;P2;SDS_P1;SDS_P2;PMS_P1;PMS_P2;Temp;Humidity;BMP_temperature;BMP_pressure;BME280_temperature;BME280_humidity;BME280_pressure;Samples;Min_cycle;Max_cycle;Signal;HPM_P1;HPM_P2
2023/10/08 00:00:45;;;;;;;16.27;5.57;;;;;;;;;;6093697;23;20157;-93
2023/10/08 00:03:51;;;;;;;11.40;5.07;;;;;;;;;;6094626;23;20703;-92
2023/10/08 00:06:58;;;;;;;12.75;5.28;;;;;;;;;;6094653;23;20198;-92
2023/10/08 00:10:04;;;;;;;11.80;4.70;;;;;;;;;;6094984;23;20174;-92
2023/10/08 00:13:09;;;;;;;12.43;5.25;;;;;;;;;;6094947;23;20170;-92
2023/10/08 00:16:15;;;;;;;14.82;5.35;;;;;;;;;;6091717;23;20177;-92
2023/10/08 00:19:26;;;;;;;13.57;4.60;;;;;;;;;;6112164;23;20169;-91
2023/10/08 00:22:35;;;;;;;10.73;4.90;;;;;;;;;;6111514;23;20166;-91
2023/10/08 00:25:43;;;;;;;11.13;4.63;;;;;;;;;;6092958;23;20190;-91
2023/10/08 00:28:51;;;;;;;12.18;4.40;;;;;;;;;;6094574;23;20247;-92
2023/10/08 00:31:56;;;;;;;10.65;4.18;;;;;;;;;;6093677;23;20170;-92
2023/10/08 00:35:05;;;;;;;10.20;4.10;;;;;;;;;;6093774;23;20169;-92
2023/10/08 00:38:16;;;;;;;12.35;4.95;;;;;;;;;;6093529;23;20178;-92
2023/10/08 00:41:22;;;;;;;8.60;4.15;;;;;;;;;;6094272;23;20265;-92
2023/10/08 00:44:30;;;;;;;8.63;4.10;;;;;;;;;;6095527;23;20179;-92
2023/10/08 00:47:42;;;;;;;11.63;4.50;;;;;;;;;;6108678;23;20173;-93
2023/10/08 00:50:48;;;;;;;14.88;4.70;;;;;;;;;;6091646;23;20218;-91
2023/10/08 00:53:58;;;;;;;13.75;4.80;;;;;;;;;;6092304;23;20169;-89
2023/10/08 00:57:05;;;;;;;10.52;4.60;;;;;;;;;;6091228;23;20341;-91
2023/10/08 01:00:17;;;;;;;13.57;4.80;;;;;;;;;;6108509;23;20610;-92
2023/10/08 01:03:23;;;;;;;10.52;4.68;;;;;;;;;;6092464;23;20173;-92
2023/10/08 01:06:29;;;;;;;18.98;5.50;;;;;;;;;;6092026;23;20197;-91
2023/10/08 01:09:37;;;;;;;10.35;4.60;;;;;;;;;;6093099;23;20178;-92
2023/10/08 01:12:54;;;;;;;13.85;5.10;;;;;;;;;;6093813;23;20250;-91
2023/10/08 01:15:59;;;;;;;11.48;4.95;;;;;;;;;;6110411;23;20638;-93
2023/10/08 01:19:12;;;;;;;11.18;4.25;;;;;;;;;;6111391;23;20178;-92
2023/10/08 01:22:21;;;;;;;9.80;4.60;;;;;;;;;;6092073;23;20232;-91
2023/10/08 01:25:29;;;;;;;10.30;4.93;;;;;;;;;;6092456;23;20649;-91
2023/10/08 01:28:35;;;;;;;10.55;4.20;;;;;;;;;;6093250;23;20170;-91
2023/10/08 01:31:41;;;;;;;10.20;5.03;;;;;;;;;;6092299;23;20174;-92
2023/10/08 01:34:46;;;;;;;10.57;4.47;;;;;;;;;;6109047;23;20203;-92
2023/10/08 01:37:56;;;;;;;11.00;4.70;;;;;;;;;;6110454;23;20190;-91
2023/10/08 01:41:04;;;;;;;16.65;4.78;;;;;;;;;;6093920;23;20170;-92
2023/10/08 01:44:09;;;;;;;14.07;5.22;;;;;;;;;;6094780;23;20170;-92
2023/10/08 01:47:15;;;;;;;11.60;4.78;;;;;;;;;;6108833;23;20193;-93
2023/10/08 01:50:22;;;;;;;10.13;4.85;;;;;;;;;;6092674;23;20162;-92
2023/10/08 01:53:28;;;;;;;12.63;5.20;;;;;;;;;;6109586;23;20149;-93
2023/10/08 01:56:33;;;;;;;11.85;4.47;;;;;;;;;;6111091;23;20170;-92
2023/10/08 01:59:39;;;;;;;9.65;4.20;;;;;;;;;;6094912;23;20253;-92
2023/10/08 02:02:44;;;;;;;11.88;4.68;;;;;;;;;;6111665;23;20233;-93
2023/10/08 02:05:53;;;;;;;12.55;4.50;;;;;;;;;;6110668;23;20273;-92
2023/10/08 02:09:05;;;;;;;13.75;5.03;;;;;;;;;;6093117;23;20630;-92
2023/10/08 02:12:14;;;;;;;10.93;4.75;;;;;;;;;;6093069;23;20174;-92
2023/10/08 02:15:19;;;;;;;10.07;4.50;;;;;;;;;;6093660;23;20235;-93
2023/10/08 02:18:25;;;;;;;11.13;4.43;;;;;;;;;;6092484;23;20254;-93
2023/10/08 02:21:31;;;;;;;14.63;4.80;;;;;;;;;;6093457;23;20613;-93
2023/10/08 02:24:39;;;;;;;14.10;4.95;;;;;;;;;;6093003;23;20648;-92
2023/10/08 02:27:44;;;;;;;15.05;4.35;;;;;;;;;;6093937;23;20160;-92
2023/10/08 02:30:49;;;;;;;11.25;4.88;;;;;;;;;;6110972;23;20178;-93
2023/10/08 02:33:55;;;;;;;11.43;4.55;;;;;;;;;;6099347;23;20154;-92
2023/10/08 02:37:00;;;;;;;13.98;4.68;;;;;;;;;;6110414;23;20172;-92
2023/10/08 02:40:15;;;;;;;7.28;3.92;;;;;;;;;;6093601;23;20177;-91
2023/10/08 02:43:23;;;;;;;12.20;4.50;;;;;;;;;;6096499;23;20158;-91
2023/10/08 02:46:30;;;;;;;10.48;4.53;;;;;;;;;;6092985;23;20201;-92
2023/10/08 02:49:36;;;;;;;11.43;4.95;;;;;;;;;;6091693;23;20218;-92
2023/10/08 02:52:42;;;;;;;16.83;4.95;;;;;;;;;;6092944;23;20178;-90
2023/10/08 02:55:49;;;;;;;13.27;5.72;;;;;;;;;;6092002;23;20182;-91
2023/10/08 02:58:55;;;;;;;13.95;5.40;;;;;;;;;;6092100;23;20182;-92
2023/10/08 03:02:00;;;;;;;14.20;5.70;;;;;;;;;;6092056;23;20265;-92
2023/10/08 03:05:08;;;;;;;11.07;5.35;;;;;;;;;;6091419;23;20243;-93
2023/10/08 03:08:19;;;;;;;14.35;5.30;;;;;;;;;;6092637;23;20296;-91
2023/10/08 03:11:26;;;;;;;11.20;5.28;;;;;;;;;;6092757;23;20304;-92
2023/10/08 03:14:41;;;;;;;14.57;5.72;;;;;;;;;;6092906;23;20174;-91
2023/10/08 03:17:50;;;;;;;13.00;6.05;;;;;;;;;;6094553;23;20166;-92
2023/10/08 03:21:03;;;;;;;13.18;5.38;;;;;;;;;;6093888;23;20200;-91
2023/10/08 03:24:23;;;;;;;13.75;5.45;;;;;;;;;;6093270;23;20178;-91
2023/10/08 03:27:35;;;;;;;18.13;5.13;;;;;;;;;;6093844;23;20195;-92
2023/10/08 03:30:49;;;;;;;11.85;5.18;;;;;;;;;;6093978;23;20169;-92
2023/10/08 03:33:55;;;;;;;8.90;4.35;;;;;;;;;;6095051;23;20210;-92
2023/10/08 03:37:05;;;;;;;11.48;4.55;;;;;;;;;;6095192;23;20173;-92
2023/10/08 03:40:25;;;;;;;14.32;4.65;;;;;;;;;;6094678;23;20170;-91
2023/10/08 03:43:43;;;;;;;10.88;4.60;;;;;;;;;;6095336;23;20175;-92
2023/10/08 03:46:48;;;;;;;13.48;4.38;;;;;;;;;;6094599;23;20193;-93
2023/10/08 03:49:54;;;;;;;9.77;4.47;;;;;;;;;;6094625;23;20182;-91
2023/10/08 03:53:02;;;;;;;12.32;4.40;;;;;;;;;;6109676;23;20673;-92
2023/10/08 03:56:08;;;;;;;12.88;4.13;;;;;;;;;;6094479;23;20658;-93
2023/10/08 03:59:20;;;;;;;9.45;4.15;;;;;;;;;;6094952;23;20170;-93
2023/10/08 04:02:39;;;;;;;11.15;4.30;;;;;;;;;;6094324;23;20521;-92
2023/10/08 04:05:59;;;;;;;10.80;5.15;;;;;;;;;;6092981;23;20174;-91
2023/10/08 04:09:16;;;;;;;11.93;5.15;;;;;;;;;;6093677;23;20170;-91
2023/10/08 04:12:22;;;;;;;11.90;5.07;;;;;;;;;;6095787;23;20724;-92
2023/10/08 04:15:28;;;;;;;9.70;4.63;;;;;;;;;;6095376;23;20276;-92
2023/10/08 04:18:40;;;;;;;12.30;4.95;;;;;;;;;;6094163;23;20245;-92
2023/10/08 04:21:53;;;;;;;12.82;5.05;;;;;;;;;;6094078;23;20173;-91
2023/10/08 04:25:05;;;;;;;11.18;4.75;;;;;;;;;;6094720;23;20222;-93
2023/10/08 04:28:14;;;;;;;14.07;5.30;;;;;;;;;;6095169;23;20197;-92
2023/10/08 04:31:24;;;;;;;10.40;4.63;;;;;;;;;;6093219;23;20617;-92
2023/10/08 04:34:33;;;;;;;9.73;4.43;;;;;;;;;;6096704;23;20161;-92
2023/10/08 04:37:40;;;;;;;8.70;4.65;;;;;;;;;;6096201;23;20226;-91
2023/10/08 04:40:51;;;;;;;11.32;4.60;;;;;;;;;;6096979;23;20174;-92
2023/10/08 04:44:02;;;;;;;15.43;4.50;;;;;;;;;;6093953;23;20296;-91
2023/10/08 04:47:09;;;;;;;10.98;5.10;;;;;;;;;;6093621;23;20237;-92
2023/10/08 04:50:18;;;;;;;10.18;4.78;;;;;;;;;;6093822;23;20154;-92
2023/10/08 04:53:31;;;;;;;8.88;4.28;;;;;;;;;;6094731;23;20169;-93
2023/10/08 04:56:38;;;;;;;10.73;4.05;;;;;;;;;;6094329;23;20174;-92
2023/10/08 04:59:44;;;;;;;13.73;4.30;;;;;;;;;;6095299;23;20169;-91
2023/10/08 05:02:53;;;;;;;10.18;4.28;;;;;;;;;;6094048;23;20178;-91
2023/10/08 05:06:07;;;;;;;10.15;4.28;;;;;;;;;;6093841;23;20222;-91
2023/10/08 05:09:22;;;;;;;10.25;4.45;;;;;;;;;;6093566;23;20595;-92
2023/10/08 05:12:34;;;;;;;12.82;4.85;;;;;;;;;;6093675;23;20178;-92
2023/10/08 05:15:41;;;;;;;11.82;4.68;;;;;;;;;;6092002;23;20174;-91
2023/10/08 05:22:33;;;;;;;12.48;5.80;;;;;;;;;;6088756;23;20309;-90
2023/10/08 05:25:57;;;;;;;12.40;5.78;;;;;;;;;;6094122;23;20199;-92
2023/10/08 05:29:25;;;;;;;10.70;4.65;;;;;;;;;;6093318;23;20178;-92
2023/10/08 05:32:44;;;;;;;12.30;4.88;;;;;;;;;;6092614;23;20177;-92
2023/10/08 05:35:54;;;;;;;10.93;4.72;;;;;;;;;;6092305;23;20244;-92
2023/10/08 05:39:00;;;;;;;9.77;4.88;;;;;;;;;;6093868;23;20178;-92
2023/10/08 05:42:13;;;;;;;12.98;4.70;;;;;;;;;;6093130;23;20158;-92
2023/10/08 05:45:30;;;;;;;14.98;4.75;;;;;;;;;;6109418;23;20169;-93
2023/10/08 05:48:44;;;;;;;12.50;4.40;;;;;;;;;;6093950;23;20173;-92
2023/10/08 05:52:11;;;;;;;10.82;4.30;;;;;;;;;;6092886;23;20174;-93
2023/10/08 05:55:25;;;;;;;11.18;4.13;;;;;;;;;;6093518;23;20202;-92
2023/10/08 05:58:45;;;;;;;10.75;4.00;;;;;;;;;;6094290;23;20223;-93
2023/10/08 06:01:58;;;;;;;8.57;3.65;;;;;;;;;;6094163;23;20194;-92
2023/10/08 06:05:20;;;;;;;13.88;4.65;;;;;;;;;;6093765;23;20165;-93
2023/10/08 06:08:48;;;;;;;7.90;3.67;;;;;;;;;;6095852;23;20202;-91
2023/10/08 06:12:12;;;;;;;8.52;3.95;;;;;;;;;;6097738;23;20182;-93
2023/10/08 06:15:27;;;;;;;8.77;3.90;;;;;;;;;;6096094;23;20214;-92
2023/10/08 06:18:32;;;;;;;11.65;4.07;;;;;;;;;;6095816;23;20214;-93
2023/10/08 06:21:39;;;;;;;14.40;4.00;;;;;;;;;;6094316;23;20208;-92
2023/10/08 06:24:46;;;;;;;9.90;4.25;;;;;;;;;;6097000;23;20166;-92
2023/10/08 06:27:55;;;;;;;9.15;3.95;;;;;;;;;;6095562;23;20202;-92
2023/10/08 06:31:01;;;;;;;10.98;3.85;;;;;;;;;;6094734;23;20170;-92
2023/10/08 06:34:08;;;;;;;8.25;3.88;;;;;;;;;;6109478;23;20170;-92
2023/10/08 06:37:15;;;;;;;9.60;4.30;;;;;;;;;;6111122;23;20174;-91
2023/10/08 06:40:42;;;;;;;14.18;4.75;;;;;;;;;;6096118;23;20157;-92
2023/10/08 06:43:49;;;;;;;9.55;4.55;;;;;;;;;;6092671;23;20169;-92
2023/10/08 06:46:54;;;;;;;14.90;4.90;;;;;;;;;;6091525;23;20205;-91
2023/10/08 06:50:00;;;;;;;10.57;4.80;;;;;;;;;;6094084;23;20157;-92
2023/10/08 06:53:08;;;;;;;11.20;4.43;;;;;;;;;;6093507;23;20290;-91
2023/10/08 06:56:15;;;;;;;13.52;4.03;;;;;;;;;;6092793;23;20224;-92
2023/10/08 06:59:23;;;;;;;12.80;4.65;;;;;;;;;;6111585;23;20178;-92
2023/10/08 07:02:30;;;;;;;12.98;4.57;;;;;;;;;;6097675;23;20181;-91
2023/10/08 07:05:54;;;;;;;15.45;4.57;;;;;;;;;;6103292;23;20265;-93
2023/10/08 07:12:24;;;;;;;11.88;4.13;;;;;;;;;;6100773;23;20162;-92
2023/10/08 07:15:31;;;;;;;11.98;4.40;;;;;;;;;;6096271;23;20170;-93
2023/10/08 07:18:39;;;;;;;11.55;4.85;;;;;;;;;;6098477;23;20161;-93
2023/10/08 07:21:46;;;;;;;15.35;4.78;;;;;;;;;;6081995;23;20242;-92
2023/10/08 07:24:52;;;;;;;10.18;4.78;;;;;;;;;;6099037;23;20222;-93
2023/10/08 07:28:01;;;;;;;11.52;4.80;;;;;;;;;;6098735;23;20185;-91
2023/10/08 07:31:09;;;;;;;11.77;4.43;;;;;;;;;;6098568;23;20166;-92
2023/10/08 07:34:18;;;;;;;16.40;4.80;;;;;;;;;;6098476;23;20210;-92
2023/10/08 07:37:24;;;;;;;13.20;5.03;;;;;;;;;;6113687;23;20170;-91
2023/10/08 07:40:37;;;;;;;12.15;5.13;;;;;;;;;;6095578;23;20214;-91
2023/10/08 07:43:43;;;;;;;13.00;4.88;;;;;;;;;;6095960;23;20170;-92
2023/10/08 07:46:48;;;;;;;12.20;4.63;;;;;;;;;;6094450;23;20170;-91
2023/10/08 07:49:54;;;;;;;10.30;4.63;;;;;;;;;;6093198;23;20215;-92
2023/10/08 07:53:00;;;;;;;10.27;4.90;;;;;;;;;;6093781;23;20250;-91
2023/10/08 07:56:08;;;;;;;12.40;5.15;;;;;;;;;;6095138;23;20258;-91
2023/10/08 07:59:16;;;;;;;23.42;11.68;;;;;;;;;;6095015;23;20246;-92
2023/10/08 08:02:23;;;;;;;25.88;12.43;;;;;;;;;;6095015;23;20197;-92
2023/10/08 08:05:28;;;;;;;19.25;6.60;;;;;;;;;;6094222;23;20170;-94
2023/10/08 08:08:35;;;;;;;18.25;5.80;;;;;;;;;;6091301;23;20213;-91
2023/10/08 08:11:40;;;;;;;13.40;5.68;;;;;;;;;;6091012;23;20170;-91
2023/10/08 08:14:47;;;;;;;9.70;4.50;;;;;;;;;;6091243;23;20169;-92
2023/10/08 08:17:53;;;;;;;14.55;5.50;;;;;;;;;;6108044;23;20174;-91
2023/10/08 08:21:01;;;;;;;10.60;5.03;;;;;;;;;;6092518;23;20685;-92
2023/10/08 08:24:07;;;;;;;10.65;4.90;;;;;;;;;;6092489;23;20174;-91
2023/10/08 08:27:25;;;;;;;14.80;4.20;;;;;;;;;;6091814;23;20193;-92
2023/10/08 08:30:36;;;;;;;11.70;4.53;;;;;;;;;;6110932;23;20169;-92
2023/10/08 08:33:56;;;;;;;17.00;4.88;;;;;;;;;;6092330;23;20190;-92
2023/10/08 08:37:01;;;;;;;10.73;4.90;;;;;;;;;;6095558;23;20178;-91
2023/10/08 08:40:09;;;;;;;17.77;6.82;;;;;;;;;;6092463;23;20173;-90
2023/10/08 08:43:15;;;;;;;20.33;5.78;;;;;;;;;;6093208;23;20172;-92
2023/10/08 08:46:36;;;;;;;13.77;5.85;;;;;;;;;;6093642;23;20174;-92
2023/10/08 08:49:44;;;;;;;15.25;5.47;;;;;;;;;;6111572;23;20176;-91
2023/10/08 08:52:49;;;;;;;11.85;5.22;;;;;;;;;;6091508;23;20262;-91
2023/10/08 08:55:55;;;;;;;13.27;5.97;;;;;;;;;;6107868;23;20662;-91
2023/10/08 08:59:01;;;;;;;17.48;6.88;;;;;;;;;;6090210;23;20162;-91
2023/10/08 09:02:10;;;;;;;11.38;5.70;;;;;;;;;;6106427;23;20529;-90
2023/10/08 09:08:42;;;;;;;17.63;5.35;;;;;;;;;;6088186;23;20247;-91
2023/10/08 09:11:47;;;;;;;10.45;4.80;;;;;;;;;;6089110;23;20186;-91
2023/10/08 09:14:52;;;;;;;17.38;5.30;;;;;;;;;;6105490;23;20221;-91
2023/10/08 09:18:00;;;;;;;13.73;4.82;;;;;;;;;;6091131;23;20165;-90
2023/10/08 09:21:12;;;;;;;11.15;4.95;;;;;;;;;;6090423;23;20679;-90
2023/10/08 09:24:20;;;;;;;14.45;4.93;;;;;;;;;;6089259;23;20170;-91
2023/10/08 09:27:27;;;;;;;15.10;4.95;;;;;;;;;;6091072;23;20201;-90
2023/10/08 09:30:37;;;;;;;12.02;5.20;;;;;;;;;;6090349;23;20618;-90
2023/10/08 09:33:43;;;;;;;11.60;4.50;;;;;;;;;;6089866;23;20723;-91
2023/10/08 09:36:51;;;;;;;12.63;5.20;;;;;;;;;;6093683;23;20170;-91
2023/10/08 09:39:58;;;;;;;13.90;4.72;;;;;;;;;;6090295;23;20243;-91
2023/10/08 09:43:03;;;;;;;14.57;4.55;;;;;;;;;;6090822;23;20198;-91
2023/10/08 09:46:10;;;;;;;16.30;4.30;;;;;;;;;;6090470;23;20170;-91
2023/10/08 09:49:16;;;;;;;13.73;4.75;;;;;;;;;;6092107;23;20253;-89
2023/10/08 09:52:25;;;;;;;12.48;4.05;;;;;;;;;;6092160;23;20174;-90
2023/10/08 09:55:30;;;;;;;11.20;5.05;;;;;;;;;;6107323;23;20170;-90
2023/10/08 09:58:36;;;;;;;10.63;4.55;;;;;;;;;;6108125;23;20713;-88
2023/10/08 10:01:42;;;;;;;11.75;4.35;;;;;;;;;;6107074;23;20205;-90
2023/10/08 10:04:48;;;;;;;13.20;4.50;;;;;;;;;;6092952;23;20149;-89
2023/10/08 10:07:56;;;;;;;12.57;4.85;;;;;;;;;;6089223;23;20196;-89
2023/10/08 10:11:02;;;;;;;11.68;4.72;;;;;;;;;;6105152;23;20193;-90
2023/10/08 10:14:08;;;;;;;15.30;4.75;;;;;;;;;;6106822;23;20173;-89
2023/10/08 10:17:20;;;;;;;11.50;4.13;;;;;;;;;;6088086;23;20267;-89
2023/10/08 10:20:25;;;;;;;13.98;3.78;;;;;;;;;;6089289;23;20214;-89
2023/10/08 10:23:42;;;;;;;12.35;3.83;;;;;;;;;;6088931;23;20201;-88
2023/10/08 10:26:50;;;;;;;10.35;4.45;;;;;;;;;;6089371;23;20614;-87
2023/10/08 10:30:08;;;;;;;12.38;4.63;;;;;;;;;;6087938;23;20174;-90
2023/10/08 10:33:13;;;;;;;9.68;4.28;;;;;;;;;;6090223;23;20177;-89
2023/10/08 10:36:22;;;;;;;11.75;4.65;;;;;;;;;;6093187;23;20170;-90
2023/10/08 10:39:30;;;;;;;21.70;5.38;;;;;;;;;;6091567;23;20165;-90
2023/10/08 10:42:38;;;;;;;15.95;5.78;;;;;;;;;;6110040;23;20298;-92
2023/10/08 10:45:44;;;;;;;13.18;4.88;;;;;;;;;;6093302;23;20170;-90
2023/10/08 10:49:03;;;;;;;12.57;4.53;;;;;;;;;;6092418;23;20236;-90
2023/10/08 10:52:11;;;;;;;12.43;4.03;;;;;;;;;;6091366;23;20245;-88
2023/10/08 10:55:21;;;;;;;18.70;5.35;;;;;;;;;;6091227;23;20170;-89
2023/10/08 10:58:26;;;;;;;14.50;4.65;;;;;;;;;;6091669;23;20257;-90
2023/10/08 11:01:44;;;;;;;11.55;4.22;;;;;;;;;;6089316;23;20197;-90
2023/10/08 11:04:49;;;;;;;13.10;4.53;;;;;;;;;;6088732;23;20178;-91
2023/10/08 11:07:58;;;;;;;13.13;4.28;;;;;;;;;;6090544;23;20172;-91
2023/10/08 11:11:09;;;;;;;12.65;4.28;;;;;;;;;;6089673;23;20178;-91
2023/10/08 11:14:18;;;;;;;10.60;3.95;;;;;;;;;;6092039;23;20177;-90
2023/10/08 11:17:26;;;;;;;14.00;5.78;;;;;;;;;;6093342;23;20181;-90
2023/10/08 11:20:32;;;;;;;12.02;5.15;;;;;;;;;;6095748;23;20247;-90
2023/10/08 11:23:41;;;;;;;14.75;4.20;;;;;;;;;;6112839;23;20173;-91
2023/10/08 11:27:02;;;;;;;10.77;3.95;;;;;;;;;;6096561;23;20173;-91
2023/10/08 11:30:11;;;;;;;24.95;10.15;;;;;;;;;;6096482;23;20174;-88
2023/10/08 11:33:17;;;;;;;12.52;4.65;;;;;;;;;;6115457;23;20228;-88
2023/10/08 11:36:29;;;;;;;9.63;4.28;;;;;;;;;;6074696;23;20185;-91
2023/10/08 11:39:45;;;;;;;15.02;4.30;;;;;;;;;;6097798;23;20173;-89
2023/10/08 11:42:52;;;;;;;10.13;4.03;;;;;;;;;;6096967;23;20618;-91
2023/10/08 11:45:58;;;;;;;8.85;4.28;;;;;;;;;;6097099;23;20161;-89
2023/10/08 11:49:11;;;;;;;14.27;4.82;;;;;;;;;;6096240;23;20193;-91
2023/10/08 11:52:23;;;;;;;10.10;4.00;;;;;;;;;;6099404;23;20191;-90
2023/10/08 11:55:34;;;;;;;9.48;3.50;;;;;;;;;;6097852;23;20181;-90
2023/10/08 11:58:44;;;;;;;11.68;4.30;;;;;;;;;;6098247;23;20252;-91
2023/10/08 12:01:52;;;;;;;19.13;4.15;;;;;;;;;;6098009;23;20679;-91
2023/10/08 12:04:58;;;;;;;7.78;3.67;;;;;;;;;;6098609;23;20174;-90
2023/10/08 12:08:08;;;;;;;10.45;3.47;;;;;;;;;;6097429;23;20194;-88
2023/10/08 12:11:14;;;;;;;10.68;3.80;;;;;;;;;;6101485;23;20177;-89
2023/10/08 12:14:38;;;;;;;8.68;3.70;;;;;;;;;;6101910;23;20179;-88
2023/10/08 12:17:44;;;;;;;12.68;3.58;;;;;;;;;;6095503;23;20174;-91
2023/10/08 12:20:50;;;;;;;9.65;4.07;;;;;;;;;;6098818;23;20170;-89
2023/10/08 12:24:06;;;;;;;8.07;3.42;;;;;;;;;;6098860;23;20492;-91
2023/10/08 12:27:11;;;;;;;15.23;4.13;;;;;;;;;;6097062;23;20173;-91
2023/10/08 12:30:30;;;;;;;9.98;3.55;;;;;;;;;;6095487;23;20226;-90
2023/10/08 12:33:37;;;;;;;11.38;3.83;;;;;;;;;;6096111;23;20178;-89
2023/10/08 12:36:43;;;;;;;9.25;3.78;;;;;;;;;;6095131;23;20189;-91
2023/10/08 12:39:59;;;;;;;10.25;3.85;;;;;;;;;;6090731;23;20198;-91
2023/10/08 12:43:07;;;;;;;9.45;3.10;;;;;;;;;;6093959;23;20283;-90
2023/10/08 12:46:23;;;;;;;11.50;4.20;;;;;;;;;;6097088;23;20253;-91
2023/10/08 12:49:33;;;;;;;12.25;3.72;;;;;;;;;;6093812;23;20197;-92
2023/10/08 12:52:45;;;;;;;28.65;8.55;;;;;;;;;;6092879;23;20174;-91
2023/10/08 12:55:53;;;;;;;11.32;3.88;;;;;;;;;;6093925;23;20177;-91
2023/10/08 12:58:58;;;;;;;8.57;3.33;;;;;;;;;;6094439;23;20174;-90
2023/10/08 13:02:10;;;;;;;13.93;4.10;;;;;;;;;;6092610;23;20222;-91
2023/10/08 13:05:17;;;;;;;13.93;3.38;;;;;;;;;;6093048;23;20170;-90
2023/10/08 13:08:27;;;;;;;13.77;4.57;;;;;;;;;;6095429;23;20177;-90
2023/10/08 13:11:34;;;;;;;14.73;3.78;;;;;;;;;;6095508;23;20250;-92
2023/10/08 13:14:39;;;;;;;11.18;3.70;;;;;;;;;;6096629;23;20178;-90
2023/10/08 13:17:45;;;;;;;13.88;3.58;;;;;;;;;;6093937;23;20182;-88
2023/10/08 13:20:51;;;;;;;9.88;3.55;;;;;;;;;;6094184;23;20177;-88
2023/10/08 13:23:59;;;;;;;8.50;3.40;;;;;;;;;;6093792;23;20178;-89
2023/10/08 13:27:07;;;;;;;9.18;4.03;;;;;;;;;;6098055;23;20551;-90
2023/10/08 13:30:14;;;;;;;14.43;3.75;;;;;;;;;;6096218;23;20222;-90
2023/10/08 13:33:22;;;;;;;9.57;3.42;;;;;;;;;;6095905;23;20162;-89
2023/10/08 13:36:28;;;;;;;10.40;3.85;;;;;;;;;;6095405;23;20165;-90
2023/10/08 13:39:35;;;;;;;15.50;4.18;;;;;;;;;;6097109;23;20226;-93
2023/10/08 13:42:41;;;;;;;10.32;3.53;;;;;;;;;;6099450;23;20551;-92
2023/10/08 13:45:47;;;;;;;10.80;3.58;;;;;;;;;;6098335;23;20198;-92
2023/10/08 13:48:54;;;;;;;18.02;4.95;;;;;;;;;;6114515;23;20194;-90
2023/10/08 13:52:01;;;;;;;9.07;3.63;;;;;;;;;;6097897;23;20625;-90
2023/10/08 13:55:09;;;;;;;11.02;3.30;;;;;;;;;;6099504;23;20165;-90
2023/10/08 13:58:18;;;;;;;10.73;3.92;;;;;;;;;;6097578;23;20214;-92
2023/10/08 14:01:25;;;;;;;11.95;3.70;;;;;;;;;;6094732;23;20188;-92
2023/10/08 14:04:39;;;;;;;11.50;3.40;;;;;;;;;;6096473;23;20170;-93
2023/10/08 14:07:48;;;;;;;10.43;3.70;;;;;;;;;;6114814;23;20165;-91
2023/10/08 14:10:56;;;;;;;12.93;4.18;;;;;;;;;;6095442;23;20241;-89
2023/10/08 14:14:07;;;;;;;10.57;3.88;;;;;;;;;;6097905;23;20218;-92
2023/10/08 14:17:16;;;;;;;13.18;4.20;;;;;;;;;;6096770;23;20169;-91
2023/10/08 14:20:23;;;;;;;10.32;4.20;;;;;;;;;;6096292;23;20221;-92
2023/10/08 14:23:29;;;;;;;11.75;3.95;;;;;;;;;;6097226;23;20154;-92
2023/10/08 14:26:36;;;;;;;21.23;6.45;;;;;;;;;;6097945;23;20173;-91
2023/10/08 14:29:43;;;;;;;12.98;4.28;;;;;;;;;;6095841;23;20245;-91
2023/10/08 14:32:57;;;;;;;10.05;4.32;;;;;;;;;;6096714;23;20227;-91
2023/10/08 14:43:15;;;;;;;18.30;4.70;;;;;;;;;;5978659;23;20196;-92
2023/10/08 14:46:23;;;;;;;16.50;4.95;;;;;;;;;;6097255;23;20178;-92
2023/10/08 14:49:29;;;;;;;11.57;4.43;;;;;;;;;;6097639;23;20181;-92
2023/10/08 14:52:36;;;;;;;17.27;5.63;;;;;;;;;;6095357;23;20181;-92
2023/10/08 14:55:42;;;;;;;12.57;5.00;;;;;;;;;;6095627;23;20165;-92
2023/10/08 14:58:49;;;;;;;19.50;6.32;;;;;;;;;;6096520;23;20207;-93
2023/10/08 15:01:55;;;;;;;14.82;4.95;;;;;;;;;;6095797;23;20518;-92
2023/10/08 15:05:00;;;;;;;13.80;4.60;;;;;;;;;;6096775;23;20169;-90
2023/10/08 15:08:27;;;;;;;9.50;4.00;;;;;;;;;;6111812;23;20221;-89
2023/10/08 15:11:35;;;;;;;11.95;4.30;;;;;;;;;;6112652;23;20226;-92
2023/10/08 15:14:42;;;;;;;15.32;4.35;;;;;;;;;;6093094;23;20251;-91
2023/10/08 15:17:51;;;;;;;12.13;4.18;;;;;;;;;;6092700;23;20162;-93
2023/10/08 15:20:57;;;;;;;12.45;4.85;;;;;;;;;;6093889;23;20222;-92
2023/10/08 15:24:05;;;;;;;13.70;4.75;;;;;;;;;;6095520;23;20225;-91
2023/10/08 15:27:12;;;;;;;11.25;4.68;;;;;;;;;;6099025;23;20177;-91
2023/10/08 15:30:19;;;;;;;21.33;4.95;;;;;;;;;;6115667;23;20269;-91
2023/10/08 15:33:26;;;;;;;18.70;4.80;;;;;;;;;;6095918;23;20165;-91
2023/10/08 15:36:31;;;;;;;18.30;5.78;;;;;;;;;;6096444;23;20165;-90
2023/10/08 15:42:35;;;;;;;18.77;5.22;;;;;;;;;;6121037;23;20198;-91
2023/10/08 15:45:42;;;;;;;12.38;4.60;;;;;;;;;;6101224;23;20218;-90
2023/10/08 15:52:09;;;;;;;12.68;4.40;;;;;;;;;;6101999;23;20186;-91
2023/10/08 15:58:37;;;;;;;12.30;4.82;;;;;;;;;;6093941;23;20186;-90
2023/10/08 16:01:46;;;;;;;16.08;5.55;;;;;;;;;;6090701;23;20185;-92
2023/10/08 16:04:54;;;;;;;18.50;4.88;;;;;;;;;;6097424;23;20162;-91
2023/10/08 16:08:01;;;;;;;15.57;5.28;;;;;;;;;;6094048;23;20177;-91
2023/10/08 16:11:06;;;;;;;17.08;5.78;;;;;;;;;;6094125;23;20209;-91
2023/10/08 16:14:13;;;;;;;14.30;5.65;;;;;;;;;;6114916;23;20219;-91
2023/10/08 16:17:19;;;;;;;17.33;7.03;;;;;;;;;;6095794;23;20185;-92
2023/10/08 16:20:25;;;;;;;17.02;6.18;;;;;;;;;;6094157;23;20235;-92
2023/10/08 16:23:33;;;;;;;12.25;4.95;;;;;;;;;;6096205;23;20170;-90
2023/10/08 16:26:41;;;;;;;15.85;4.93;;;;;;;;;;6097281;23;20173;-92
2023/10/08 16:29:47;;;;;;;12.07;5.32;;;;;;;;;;6097583;23;20189;-91
2023/10/08 16:32:54;;;;;;;16.02;4.95;;;;;;;;;;6098779;23;20155;-91
2023/10/08 16:36:00;;;;;;;21.52;5.45;;;;;;;;;;6097054;23;20174;-92
2023/10/08 16:39:05;;;;;;;14.65;5.60;;;;;;;;;;6095944;23;20182;-89
2023/10/08 16:42:11;;;;;;;13.38;4.65;;;;;;;;;;6112060;23;20197;-92
2023/10/08 16:45:18;;;;;;;17.85;6.07;;;;;;;;;;6093430;23;20226;-90
2023/10/08 16:48:23;;;;;;;19.58;7.05;;;;;;;;;;6093228;23;20170;-91
2023/10/08 16:51:29;;;;;;;18.67;5.90;;;;;;;;;;6110354;23;20287;-91
2023/10/08 16:54:34;;;;;;;18.67;6.53;;;;;;;;;;6095705;23;20169;-91
2023/10/08 16:57:40;;;;;;;23.88;6.50;;;;;;;;;;6093832;23;20625;-90
2023/10/08 17:00:50;;;;;;;17.70;6.47;;;;;;;;;;6095476;23;20189;-90
2023/10/08 17:03:58;;;;;;;19.20;5.72;;;;;;;;;;6094017;23;20173;-91
2023/10/08 17:07:04;;;;;;;20.20;5.70;;;;;;;;;;6095236;23;20165;-91
2023/10/08 17:10:11;;;;;;;19.73;7.78;;;;;;;;;;6093084;23;20187;-91
2023/10/08 17:13:16;;;;;;;20.48;7.18;;;;;;;;;;6096057;23;20174;-91
2023/10/08 17:16:23;;;;;;;19.40;6.35;;;;;;;;;;6094349;23;20170;-92
2023/10/08 17:19:28;;;;;;;19.55;7.15;;;;;;;;;;6095276;23;20218;-91
2023/10/08 17:22:33;;;;;;;17.25;8.00;;;;;;;;;;6094070;23;20218;-91
2023/10/08 17:25:39;;;;;;;17.52;6.40;;;;;;;;;;6093917;23;20213;-91
2023/10/08 17:28:45;;;;;;;17.55;7.32;;;;;;;;;;6092164;23;20661;-91
2023/10/08 17:31:52;;;;;;;19.55;7.18;;;;;;;;;;6092723;23;20193;-92
2023/10/08 17:34:57;;;;;;;17.55;7.18;;;;;;;;;;6092555;23;20181;-92
2023/10/08 17:38:04;;;;;;;22.33;6.88;;;;;;;;;;6109932;23;20166;-92
2023/10/08 17:41:10;;;;;;;22.30;6.88;;;;;;;;;;6093121;23;20193;-92
2023/10/08 17:44:15;;;;;;;21.48;6.90;;;;;;;;;;6095046;23;20240;-90
2023/10/08 17:47:23;;;;;;;16.23;6.22;;;;;;;;;;6097252;23;20188;-90
2023/10/08 17:50:28;;;;;;;19.05;6.95;;;;;;;;;;6097189;23;20193;-92
2023/10/08 17:53:36;;;;;;;19.63;6.18;;;;;;;;;;6096747;23;20230;-93
2023/10/08 17:56:42;;;;;;;13.10;6.75;;;;;;;;;;6111986;23;20605;-92
2023/10/08 17:59:49;;;;;;;20.25;7.00;;;;;;;;;;6094631;23;20199;-92
2023/10/08 18:02:55;;;;;;;15.23;6.57;;;;;;;;;;6095891;23;20165;-89
2023/10/08 18:06:00;;;;;;;20.20;8.00;;;;;;;;;;6097807;23;20591;-91
2023/10/08 18:09:11;;;;;;;16.35;6.97;;;;;;;;;;6096221;23;20198;-90
2023/10/08 18:12:17;;;;;;;18.98;7.13;;;;;;;;;;6095226;23;20174;-91
2023/10/08 18:15:23;;;;;;;16.05;7.13;;;;;;;;;;6094066;23;20189;-90
2023/10/08 18:18:31;;;;;;;16.38;7.47;;;;;;;;;;6095604;23;20190;-91
2023/10/08 18:21:38;;;;;;;18.08;7.18;;;;;;;;;;6094875;23;20181;-90
2023/10/08 18:24:49;;;;;;;17.88;6.72;;;;;;;;;;6094635;23;20170;-91
2023/10/08 18:27:54;;;;;;;13.00;6.68;;;;;;;;;;6095940;23;20161;-91
2023/10/08 18:30:59;;;;;;;23.17;6.50;;;;;;;;;;6092735;23;20189;-91
2023/10/08 18:34:05;;;;;;;15.07;7.10;;;;;;;;;;6111217;23;20169;-91
2023/10/08 18:37:11;;;;;;;22.20;7.10;;;;;;;;;;6094596;23;20176;-92
2023/10/08 18:40:18;;;;;;;14.85;6.75;;;;;;;;;;6090821;23;20173;-91
2023/10/08 18:43:23;;;;;;;15.90;6.43;;;;;;;;;;6093228;23;20224;-92
2023/10/08 18:46:29;;;;;;;14.68;6.45;;;;;;;;;;6091867;23;20170;-90
2023/10/08 18:49:36;;;;;;;15.00;6.20;;;;;;;;;;6091747;23;20226;-92
2023/10/08 18:52:41;;;;;;;17.15;6.47;;;;;;;;;;6093767;23;20169;-91
2023/10/08 18:55:47;;;;;;;22.20;7.07;;;;;;;;;;6094092;23;20169;-93
2023/10/08 18:58:52;;;;;;;22.00;6.80;;;;;;;;;;6111785;23;20554;-90
2023/10/08 19:01:57;;;;;;;17.33;6.93;;;;;;;;;;6094818;23;20242;-92